createdAt,value
2017-04-27T00:01:10.977Z,1008.14
2017-04-27T00:02:10.661Z,1008.13
2017-04-27T00:03:10.598Z,1008.17
2017-04-27T00:04:10.535Z,1008.12
2017-04-27T00:05:10.471Z,1008.11
2017-04-27T00:06:10.410Z,1008.1
2017-04-27T00:07:10.345Z,1008.08
2017-04-27T00:08:10.282Z,1008.07
2017-04-27T00:09:10.220Z,1008.1
2017-04-27T00:10:10.159Z,1008.09
2017-04-27T00:11:10.094Z,1008.09
2017-04-27T00:12:10.032Z,1008.05
2017-04-27T00:13:09.968Z,1008.09
2017-04-27T00:14:09.906Z,1008.09
2017-04-27T00:15:09.843Z,1008.08
2017-04-27T00:16:09.780Z,1008
2017-04-27T00:17:09.717Z,1008.05
2017-04-27T00:18:09.652Z,1008.04
2017-04-27T00:19:09.590Z,1008.02
2017-04-27T00:20:09.527Z,1008.06
2017-04-27T00:21:09.464Z,1008.02
2017-04-27T00:22:09.400Z,1008.03
2017-04-27T00:23:09.339Z,1008.04
2017-04-27T00:24:09.275Z,1008.04
2017-04-27T00:25:09.214Z,1008
2017-04-27T00:26:09.150Z,1008.03
2017-04-27T00:27:09.086Z,1008.02
2017-04-27T00:28:09.025Z,1008.02
2017-04-27T00:29:08.960Z,1008.04
2017-04-27T00:30:08.897Z,1008
2017-04-27T00:31:08.836Z,1008.02
2017-04-27T00:32:08.772Z,1008.04
2017-04-27T00:33:08.708Z,1008.01
2017-04-27T00:34:08.644Z,1007.97
2017-04-27T00:35:08.584Z,1008
2017-04-27T00:36:08.527Z,1007.97
2017-04-27T00:37:08.458Z,1007.99
2017-04-27T00:38:08.393Z,1008.02
2017-04-27T00:39:08.330Z,1007.99
2017-04-27T00:40:08.267Z,1008
2017-04-27T00:41:08.203Z,1007.98
2017-04-27T00:42:08.142Z,1008
2017-04-27T00:43:08.079Z,1008.01
2017-04-27T00:44:08.014Z,1008.01
2017-04-27T00:45:07.953Z,1007.98
2017-04-27T00:46:07.890Z,1007.98
2017-04-27T00:47:07.826Z,1007.99
2017-04-27T00:48:07.763Z,1007.99
2017-04-27T00:49:07.699Z,1007.97
2017-04-27T00:50:07.638Z,1007.97
2017-04-27T00:51:07.576Z,1007.96
2017-04-27T00:52:07.511Z,1007.97
2017-04-27T00:53:07.448Z,1007.96
2017-04-27T00:54:07.387Z,1007.98
2017-04-27T00:55:07.322Z,1007.97
2017-04-27T00:56:07.260Z,1007.98
2017-04-27T00:57:07.197Z,1007.96
2017-04-27T00:58:07.139Z,1007.98
2017-04-27T00:59:07.071Z,1008
2017-04-27T01:00:07.007Z,1008.05
2017-04-27T01:01:06.945Z,1008.04
2017-04-27T01:02:06.884Z,1008.03
2017-04-27T01:03:06.818Z,1008.03
2017-04-27T01:04:06.756Z,1008.05
2017-04-27T01:05:06.692Z,1008.07
2017-04-27T01:06:06.628Z,1008.05
2017-04-27T01:07:06.566Z,1008.07
2017-04-27T01:08:06.503Z,1008.09
2017-04-27T01:09:06.441Z,1008.09
2017-04-27T01:10:06.375Z,1008.09
2017-04-27T01:11:06.315Z,1008.03
2017-04-27T01:12:06.252Z,1008.03
2017-04-27T01:13:06.437Z,1008.04
2017-04-27T01:14:06.123Z,1008.03
2017-04-27T01:15:06.068Z,1008.02
2017-04-27T01:16:05.999Z,1008.02
2017-04-27T01:17:05.935Z,1008.04
2017-04-27T01:18:05.871Z,1008.02
2017-04-27T01:19:05.809Z,1008.02
2017-04-27T01:20:05.745Z,1007.99
2017-04-27T01:21:05.683Z,1007.97
2017-04-27T01:22:05.620Z,1007.98
2017-04-27T01:23:05.558Z,1007.95
2017-04-27T01:24:05.494Z,1007.96
2017-04-27T01:25:05.431Z,1007.97
2017-04-27T01:26:05.369Z,1008
2017-04-27T01:27:05.306Z,1008
2017-04-27T01:28:05.241Z,1007.98
2017-04-27T01:29:05.179Z,1008
2017-04-27T01:30:05.115Z,1008.03
2017-04-27T01:31:05.054Z,1008
2017-04-27T01:32:04.988Z,1008.01
2017-04-27T01:33:04.927Z,1008
2017-04-27T01:34:04.865Z,1008.01
2017-04-27T01:35:04.803Z,1008.01
2017-04-27T01:36:04.739Z,1008.02
2017-04-27T01:37:04.676Z,1008.06
2017-04-27T01:38:04.613Z,1008.03
2017-04-27T01:39:04.548Z,1008.02
2017-04-27T01:40:04.486Z,1008.03
2017-04-27T01:41:04.422Z,1007.99
2017-04-27T01:42:04.361Z,1008
2017-04-27T01:43:04.301Z,1007.93
2017-04-27T01:44:04.234Z,1007.93
2017-04-27T01:45:04.172Z,1007.93
2017-04-27T01:46:04.108Z,1007.91
2017-04-27T01:47:04.044Z,1007.88
2017-04-27T01:48:04.010Z,1007.87
2017-04-27T01:49:03.918Z,1007.85
2017-04-27T01:50:03.854Z,1007.78
2017-04-27T01:51:03.792Z,1007.8
2017-04-27T01:52:03.728Z,1007.77
2017-04-27T01:53:03.666Z,1007.78
2017-04-27T01:54:03.603Z,1007.82
2017-04-27T01:55:03.538Z,1007.8
2017-04-27T01:56:03.478Z,1007.8
2017-04-27T01:57:03.414Z,1007.77
2017-04-27T01:58:03.352Z,1007.77
2017-04-27T01:59:03.287Z,1007.72
2017-04-27T02:00:03.224Z,1007.73
2017-04-27T02:01:03.188Z,1007.71
2017-04-27T02:02:03.097Z,1007.67
2017-04-27T02:03:03.037Z,1007.69
2017-04-27T02:04:02.973Z,1007.68
2017-04-27T02:05:02.908Z,1007.68
2017-04-27T02:06:02.848Z,1007.69
2017-04-27T02:07:02.784Z,1007.67
2017-04-27T02:08:02.719Z,1007.68
2017-04-27T02:09:02.657Z,1007.73
2017-04-27T02:10:02.594Z,1007.7
2017-04-27T02:11:02.531Z,1007.72
2017-04-27T02:12:02.493Z,1007.69
2017-04-27T02:13:02.404Z,1007.67
2017-04-27T02:14:02.341Z,1007.68
2017-04-27T02:15:02.279Z,1007.67
2017-04-27T02:16:02.214Z,1007.64
2017-04-27T02:17:02.153Z,1007.66
2017-04-27T02:18:02.090Z,1007.65
2017-04-27T02:19:02.025Z,1007.65
2017-04-27T02:20:01.963Z,1007.66
2017-04-27T02:21:01.900Z,1007.64
2017-04-27T02:22:01.838Z,1007.61
2017-04-27T02:23:01.774Z,1007.6
2017-04-27T02:24:01.710Z,1007.63
2017-04-27T02:25:01.653Z,1007.57
2017-04-27T02:26:01.586Z,1007.64
2017-04-27T02:27:01.522Z,1007.63
2017-04-27T02:28:01.466Z,1007.62
2017-04-27T02:29:01.395Z,1007.62
2017-04-27T02:30:01.333Z,1007.54
2017-04-27T02:31:01.270Z,1007.49
2017-04-27T02:32:01.206Z,1007.5
2017-04-27T02:33:01.144Z,1007.47
2017-04-27T02:34:01.080Z,1007.46
2017-04-27T02:35:01.017Z,1007.46
2017-04-27T02:36:00.954Z,1007.5
2017-04-27T02:37:00.891Z,1007.51
2017-04-27T02:38:00.859Z,1007.54
2017-04-27T02:39:00.765Z,1007.57
2017-04-27T02:40:00.700Z,1007.61
2017-04-27T02:41:00.636Z,1007.61
2017-04-27T02:42:00.575Z,1007.68
2017-04-27T02:43:00.512Z,1007.69
2017-04-27T02:44:00.449Z,1007.72
2017-04-27T02:45:00.386Z,1007.72
2017-04-27T02:46:00.323Z,1007.67
2017-04-27T02:47:00.260Z,1007.66
2017-04-27T02:48:00.196Z,1007.64
2017-04-27T02:49:00.133Z,1007.62
2017-04-27T02:50:00.071Z,1007.62
2017-04-27T02:51:00.007Z,1007.65
2017-04-27T02:51:59.945Z,1007.71
2017-04-27T02:52:59.881Z,1007.73
2017-04-27T02:53:59.819Z,1007.74
2017-04-27T02:54:59.754Z,1007.74
2017-04-27T02:55:59.690Z,1007.79
2017-04-27T02:56:59.627Z,1007.8
2017-04-27T02:57:59.565Z,1007.84
2017-04-27T02:58:59.502Z,1007.8
2017-04-27T02:59:59.436Z,1007.76
2017-04-27T03:00:59.376Z,1007.74
2017-04-27T03:01:59.318Z,1007.68
2017-04-27T03:02:59.248Z,1007.68
2017-04-27T03:03:59.193Z,1007.68
2017-04-27T03:04:59.124Z,1007.73
2017-04-27T03:05:59.061Z,1007.72
2017-04-27T03:06:58.996Z,1007.79
2017-04-27T03:07:58.934Z,1007.8
2017-04-27T03:08:58.871Z,1007.8
2017-04-27T03:09:58.807Z,1007.8
2017-04-27T03:10:58.746Z,1007.78
2017-04-27T03:11:58.685Z,1007.77
2017-04-27T03:12:58.620Z,1007.71
2017-04-27T03:13:58.560Z,1007.7
2017-04-27T03:14:58.491Z,1007.68
2017-04-27T03:15:58.429Z,1007.68
2017-04-27T03:16:58.367Z,1007.68
2017-04-27T03:17:58.303Z,1007.74
2017-04-27T03:18:58.241Z,1007.75
2017-04-27T03:19:58.177Z,1007.69
2017-04-27T03:20:58.113Z,1007.65
2017-04-27T03:21:58.051Z,1007.62
2017-04-27T03:22:57.988Z,1007.59
2017-04-27T03:23:57.924Z,1007.56
2017-04-27T03:24:57.861Z,1007.58
2017-04-27T03:25:57.799Z,1007.65
2017-04-27T03:26:57.735Z,1007.62
2017-04-27T03:27:57.671Z,1007.59
2017-04-27T03:28:57.609Z,1007.59
2017-04-27T03:29:57.546Z,1007.59
2017-04-27T03:30:57.484Z,1007.55
2017-04-27T03:31:57.419Z,1007.56
2017-04-27T03:32:57.357Z,1007.6
2017-04-27T03:33:57.294Z,1007.63
2017-04-27T03:34:57.231Z,1007.64
2017-04-27T03:35:57.168Z,1007.62
2017-04-27T03:36:57.104Z,1007.7
2017-04-27T03:37:57.042Z,1007.75
2017-04-27T03:38:56.979Z,1007.78
2017-04-27T03:39:56.915Z,1007.76
2017-04-27T03:40:56.851Z,1007.76
2017-04-27T03:41:56.788Z,1007.76
2017-04-27T03:42:56.724Z,1007.72
2017-04-27T03:43:56.661Z,1007.71
2017-04-27T03:44:56.599Z,1007.75
2017-04-27T03:45:56.536Z,1007.79
2017-04-27T03:46:56.472Z,1007.79
2017-04-27T03:47:56.410Z,1007.87
2017-04-27T03:48:56.347Z,1007.91
2017-04-27T03:49:56.289Z,1007.97
2017-04-27T03:50:56.220Z,1007.95
2017-04-27T03:51:56.157Z,1008.01
2017-04-27T03:52:56.094Z,1007.96
2017-04-27T03:53:56.031Z,1007.99
2017-04-27T03:54:55.968Z,1008
2017-04-27T03:55:55.904Z,1008.03
2017-04-27T03:56:55.841Z,1008.06
2017-04-27T03:57:55.778Z,1008.11
2017-04-27T03:58:55.716Z,1008.11
2017-04-27T03:59:55.653Z,1008.11
2017-04-27T04:00:55.589Z,1008.15
2017-04-27T04:01:55.526Z,1008.11
2017-04-27T04:02:55.464Z,1008.09
2017-04-27T04:03:55.400Z,1008.17
2017-04-27T04:04:55.337Z,1008.17
2017-04-27T04:05:55.272Z,1008.01
2017-04-27T04:06:55.209Z,1008.05
2017-04-27T04:07:55.148Z,1008.05
2017-04-27T04:08:55.084Z,1008.04
2017-04-27T04:09:55.026Z,1008.11
2017-04-27T04:10:54.957Z,1008.11
2017-04-27T04:11:54.895Z,1008.14
2017-04-27T04:12:54.834Z,1008.21
2017-04-27T04:13:54.767Z,1008.17
2017-04-27T04:14:54.705Z,1008.19
2017-04-27T04:15:54.641Z,1008.2
2017-04-27T04:16:54.578Z,1008.21
2017-04-27T04:17:54.519Z,1008.24
2017-04-27T04:18:54.452Z,1008.25
2017-04-27T04:19:54.387Z,1008.27
2017-04-27T04:20:54.324Z,1008.29
2017-04-27T04:21:54.262Z,1008.33
2017-04-27T04:22:54.200Z,1008.37
2017-04-27T04:23:54.136Z,1008.42
2017-04-27T04:24:54.074Z,1008.45
2017-04-27T04:25:54.010Z,1008.42
2017-04-27T04:26:53.976Z,1008.48
2017-04-27T04:27:53.883Z,1008.41
2017-04-27T04:28:53.820Z,1008.44
2017-04-27T04:29:53.758Z,1008.44
2017-04-27T04:30:53.694Z,1008.45
2017-04-27T04:31:53.630Z,1008.47
2017-04-27T04:32:53.568Z,1008.48
2017-04-27T04:33:53.506Z,1008.54
2017-04-27T04:34:53.440Z,1008.53
2017-04-27T04:35:53.378Z,1008.54
2017-04-27T04:36:53.315Z,1008.54
2017-04-27T04:37:53.251Z,1008.61
2017-04-27T04:38:53.189Z,1008.61
2017-04-27T04:39:53.126Z,1008.6
2017-04-27T04:40:53.070Z,1008.62
2017-04-27T04:41:52.997Z,1008.61
2017-04-27T04:42:52.935Z,1008.6
2017-04-27T04:43:52.872Z,1008.61
2017-04-27T04:44:52.810Z,1008.59
2017-04-27T04:45:52.746Z,1008.58
2017-04-27T04:46:52.683Z,1008.55
2017-04-27T04:47:52.631Z,1008.55
2017-04-27T04:48:52.556Z,1008.52
2017-04-27T04:49:52.495Z,1008.53
2017-04-27T04:50:52.430Z,1008.52
2017-04-27T04:51:52.367Z,1008.54
2017-04-27T04:52:52.305Z,1008.56
2017-04-27T04:53:52.241Z,1008.59
2017-04-27T04:54:52.178Z,1008.56
2017-04-27T04:55:52.112Z,1008.57
2017-04-27T04:56:52.052Z,1008.57
2017-04-27T04:57:51.988Z,1008.57
2017-04-27T04:58:51.925Z,1008.55
2017-04-27T04:59:51.862Z,1008.52
2017-04-27T05:00:51.800Z,1008.52
2017-04-27T05:01:51.735Z,1008.55
2017-04-27T05:02:51.672Z,1008.54
2017-04-27T05:03:51.609Z,1008.58
2017-04-27T05:04:51.545Z,1008.59
2017-04-27T05:05:51.482Z,1008.57
2017-04-27T05:06:51.418Z,1008.59
2017-04-27T05:07:51.355Z,1008.64
2017-04-27T05:08:51.292Z,1008.65
2017-04-27T05:09:51.230Z,1008.66
2017-04-27T05:10:51.165Z,1008.67
2017-04-27T05:11:51.101Z,1008.69
2017-04-27T05:12:51.040Z,1008.7
2017-04-27T05:13:50.976Z,1008.72
2017-04-27T05:14:50.912Z,1008.77
2017-04-27T05:15:50.848Z,1008.77
2017-04-27T05:16:50.785Z,1008.79
2017-04-27T05:17:50.721Z,1008.78
2017-04-27T05:18:50.658Z,1008.79
2017-04-27T05:19:50.596Z,1008.71
2017-04-27T05:20:50.534Z,1008.73
2017-04-27T05:21:50.469Z,1008.75
2017-04-27T05:22:50.405Z,1008.76
2017-04-27T05:23:50.342Z,1008.79
2017-04-27T05:24:50.279Z,1008.83
2017-04-27T05:25:50.216Z,1008.83
2017-04-27T05:26:50.154Z,1008.87
2017-04-27T05:27:50.089Z,1008.94
2017-04-27T05:28:50.026Z,1008.94
2017-04-27T05:29:49.962Z,1008.92
2017-04-27T05:30:49.899Z,1008.94
2017-04-27T05:31:49.838Z,1008.9
2017-04-27T05:32:49.774Z,1008.89
2017-04-27T05:33:49.709Z,1008.92
2017-04-27T05:34:49.647Z,1008.91
2017-04-27T05:35:49.584Z,1008.95
2017-04-27T05:36:49.520Z,1008.95
2017-04-27T05:37:49.456Z,1008.9
2017-04-27T05:38:49.395Z,1008.91
2017-04-27T05:39:49.331Z,1008.87
2017-04-27T05:40:49.268Z,1008.85
2017-04-27T05:41:49.204Z,1008.85
2017-04-27T05:42:49.142Z,1008.84
2017-04-27T05:43:49.078Z,1008.81
2017-04-27T05:44:49.012Z,1008.82
2017-04-27T05:45:48.951Z,1008.81
2017-04-27T05:46:48.888Z,1008.82
2017-04-27T05:47:48.825Z,1008.8
2017-04-27T05:48:48.763Z,1008.81
2017-04-27T05:49:48.704Z,1008.86
2017-04-27T05:50:48.633Z,1008.83
2017-04-27T05:51:48.571Z,1008.91
2017-04-27T05:52:48.509Z,1008.89
2017-04-27T05:53:48.445Z,1008.89
2017-04-27T05:54:48.382Z,1008.87
2017-04-27T05:55:48.318Z,1008.89
2017-04-27T05:56:48.255Z,1008.89
2017-04-27T05:57:48.193Z,1008.88
2017-04-27T05:58:48.129Z,1008.9
2017-04-27T05:59:48.063Z,1008.94
2017-04-27T06:00:48.002Z,1009
2017-04-27T06:01:47.937Z,1008.99
2017-04-27T06:02:47.875Z,1008.98
2017-04-27T06:03:47.813Z,1009.03
2017-04-27T06:04:47.749Z,1009.01
2017-04-27T06:05:47.685Z,1008.98
2017-04-27T06:06:47.622Z,1008.98
2017-04-27T06:07:47.559Z,1009.01
2017-04-27T06:08:47.495Z,1009.01
2017-04-27T06:09:47.432Z,1009.03
2017-04-27T06:10:47.369Z,1009.01
2017-04-27T06:11:47.305Z,1008.99
2017-04-27T06:12:47.242Z,1008.95
2017-04-27T06:13:47.179Z,1008.95
2017-04-27T06:14:47.115Z,1008.99
2017-04-27T06:15:47.053Z,1009.01
2017-04-27T06:16:46.988Z,1009.06
2017-04-27T06:17:46.924Z,1009.1
2017-04-27T06:18:46.861Z,1009.05
2017-04-27T06:19:46.800Z,1009.03
2017-04-27T06:20:46.736Z,1008.98
2017-04-27T06:21:46.673Z,1009.02
2017-04-27T06:22:46.614Z,1008.94
2017-04-27T06:23:46.546Z,1008.93
2017-04-27T06:24:46.482Z,1008.91
2017-04-27T06:25:46.419Z,1008.84
2017-04-27T06:26:46.356Z,1008.85
2017-04-27T06:27:46.294Z,1008.85
2017-04-27T06:28:46.228Z,1008.94
2017-04-27T06:29:46.166Z,1009.03
2017-04-27T06:30:46.103Z,1009.07
2017-04-27T06:31:46.042Z,1009.12
2017-04-27T06:32:46.047Z,1009.09
2017-04-27T06:33:45.974Z,1009.03
2017-04-27T06:34:45.888Z,1009.02
2017-04-27T06:35:45.849Z,1008.94
2017-04-27T06:36:45.724Z,1008.99
2017-04-27T06:37:45.659Z,1008.97
2017-04-27T06:38:45.596Z,1009.08
2017-04-27T06:39:45.535Z,1009.08
2017-04-27T06:40:45.470Z,1009.15
2017-04-27T06:41:45.405Z,1009.07
2017-04-27T06:42:45.343Z,1009.08
2017-04-27T06:43:45.280Z,1009.09
2017-04-27T06:44:45.216Z,1009.08
2017-04-27T06:45:45.154Z,1009.07
2017-04-27T06:46:45.090Z,1009.05
2017-04-27T06:47:45.027Z,1009.05
2017-04-27T06:48:44.964Z,1009.05
2017-04-27T06:49:44.902Z,1009.07
2017-04-27T06:50:44.837Z,1009.06
2017-04-27T06:51:44.774Z,1009.03
2017-04-27T06:52:44.710Z,1009.07
2017-04-27T06:53:44.647Z,1009.12
2017-04-27T06:54:44.583Z,1009.17
2017-04-27T06:55:44.521Z,1009.18
2017-04-27T06:56:44.457Z,1009.16
2017-04-27T06:57:44.394Z,1009.22
2017-04-27T06:58:44.331Z,1009.16
2017-04-27T06:59:44.268Z,1009.18
2017-04-27T07:00:44.205Z,1009.13
2017-04-27T07:01:44.140Z,1009.12
2017-04-27T07:02:44.079Z,1009.12
2017-04-27T07:03:44.013Z,1009.12
2017-04-27T07:04:43.950Z,1009.13
2017-04-27T07:05:43.888Z,1009.17
2017-04-27T07:06:43.824Z,1009.22
2017-04-27T07:07:43.761Z,1009.23
2017-04-27T07:08:43.697Z,1009.22
2017-04-27T07:09:43.638Z,1009.19
2017-04-27T07:10:43.573Z,1009.16
2017-04-27T07:11:43.515Z,1009.23
2017-04-27T07:12:43.445Z,1009.27
2017-04-27T07:13:43.381Z,1009.31
2017-04-27T07:14:43.319Z,1009.3
2017-04-27T07:15:43.257Z,1009.28
2017-04-27T07:16:43.198Z,1009.29
2017-04-27T07:17:43.129Z,1009.28
2017-04-27T07:18:43.066Z,1009.31
2017-04-27T07:19:43.001Z,1009.31
2017-04-27T07:20:42.938Z,1009.32
2017-04-27T07:21:42.875Z,1009.37
2017-04-27T07:22:42.812Z,1009.38
2017-04-27T07:23:42.748Z,1009.36
2017-04-27T07:24:42.686Z,1009.35
2017-04-27T07:25:42.625Z,1009.35
2017-04-27T07:26:42.558Z,1009.36
2017-04-27T07:27:42.501Z,1009.39
2017-04-27T07:28:42.433Z,1009.39
2017-04-27T07:29:42.368Z,1009.38
2017-04-27T07:30:42.305Z,1009.39
2017-04-27T07:31:42.266Z,1009.47
2017-04-27T07:32:42.179Z,1009.5
2017-04-27T07:33:42.116Z,1009.52
2017-04-27T07:34:42.052Z,1009.53
2017-04-27T07:35:41.990Z,1009.48
2017-04-27T07:36:41.925Z,1009.45
2017-04-27T07:37:41.861Z,1009.46
2017-04-27T07:38:41.799Z,1009.4
2017-04-27T07:39:41.737Z,1009.37
2017-04-27T07:40:41.675Z,1009.36
2017-04-27T07:41:41.608Z,1009.31
2017-04-27T07:42:41.545Z,1009.29
2017-04-27T07:43:41.488Z,1009.31
2017-04-27T07:44:41.418Z,1009.29
2017-04-27T07:45:41.355Z,1009.26
2017-04-27T07:46:41.302Z,1009.3
2017-04-27T07:47:41.234Z,1009.29
2017-04-27T07:48:41.165Z,1009.25
2017-04-27T07:49:41.102Z,1009.26
2017-04-27T07:50:41.042Z,1009.27
2017-04-27T07:51:40.973Z,1009.28
2017-04-27T07:52:40.915Z,1009.34
2017-04-27T07:53:40.848Z,1009.37
2017-04-27T07:54:40.850Z,1009.36
2017-04-27T07:55:40.992Z,1009.38
2017-04-27T07:56:40.660Z,1009.37
2017-04-27T07:57:40.597Z,1009.35
2017-04-27T07:58:40.533Z,1009.32
2017-04-27T07:59:40.470Z,1009.32
2017-04-27T08:00:40.407Z,1009.36
2017-04-27T08:01:40.346Z,1009.38
2017-04-27T08:02:40.318Z,1009.39
2017-04-27T08:03:40.217Z,1009.41
2017-04-27T08:04:40.153Z,1009.39
2017-04-27T08:05:40.092Z,1009.42
2017-04-27T08:06:40.027Z,1009.4
2017-04-27T08:07:39.973Z,1009.44
2017-04-27T08:08:39.902Z,1009.44
2017-04-27T08:09:39.837Z,1009.48
2017-04-27T08:10:39.772Z,1009.46
2017-04-27T08:11:39.713Z,1009.48
2017-04-27T08:12:39.655Z,1009.45
2017-04-27T08:13:39.585Z,1009.44
2017-04-27T08:14:39.520Z,1009.45
2017-04-27T08:15:39.487Z,1009.48
2017-04-27T08:16:39.412Z,1009.49
2017-04-27T08:17:39.333Z,1009.48
2017-04-27T08:18:39.266Z,1009.48
2017-04-27T08:19:39.209Z,1009.5
2017-04-27T08:20:39.145Z,1009.5
2017-04-27T08:21:39.078Z,1009.49
2017-04-27T08:22:39.015Z,1009.44
2017-04-27T08:23:38.952Z,1009.48
2017-04-27T08:24:38.895Z,1009.41
2017-04-27T08:25:38.825Z,1009.48
2017-04-27T08:26:38.761Z,1009.5
2017-04-27T08:27:38.697Z,1009.53
2017-04-27T08:28:38.644Z,1009.5
2017-04-27T08:29:38.604Z,1009.48
2017-04-27T08:30:38.511Z,1009.51
2017-04-27T08:31:38.446Z,1009.53
2017-04-27T08:32:38.384Z,1009.52
2017-04-27T08:33:38.318Z,1009.48
2017-04-27T08:34:38.259Z,1009.53
2017-04-27T08:35:38.192Z,1009.58
2017-04-27T08:36:38.130Z,1009.59
2017-04-27T08:37:38.067Z,1009.59
2017-04-27T08:38:38.004Z,1009.58
2017-04-27T08:39:37.939Z,1009.57
2017-04-27T08:40:37.875Z,1009.59
2017-04-27T08:41:37.812Z,1009.55
2017-04-27T08:42:37.749Z,1009.52
2017-04-27T08:43:37.685Z,1009.54
2017-04-27T08:44:37.623Z,1009.53
2017-04-27T08:45:37.561Z,1009.55
2017-04-27T08:46:37.497Z,1009.58
2017-04-27T08:47:37.431Z,1009.6
2017-04-27T08:48:37.369Z,1009.62
2017-04-27T08:49:37.306Z,1009.64
2017-04-27T08:50:37.244Z,1009.65
2017-04-27T08:51:37.179Z,1009.61
2017-04-27T08:52:37.118Z,1009.65
2017-04-27T08:53:37.053Z,1009.64
2017-04-27T08:54:36.991Z,1009.62
2017-04-27T08:55:36.926Z,1009.62
2017-04-27T08:56:36.864Z,1009.63
2017-04-27T08:57:36.801Z,1009.58
2017-04-27T08:58:36.738Z,1009.6
2017-04-27T08:59:36.674Z,1009.61
2017-04-27T09:00:36.610Z,1009.56
2017-04-27T09:01:36.547Z,1009.62
2017-04-27T09:02:36.485Z,1009.61
2017-04-27T09:03:36.423Z,1009.6
2017-04-27T09:04:36.358Z,1009.59
2017-04-27T09:05:36.295Z,1009.59
2017-04-27T09:06:36.230Z,1009.57
2017-04-27T09:07:36.169Z,1009.54
2017-04-27T09:08:36.105Z,1009.58
2017-04-27T09:09:36.041Z,1009.59
2017-04-27T09:10:36.129Z,1009.58
2017-04-27T09:11:35.916Z,1009.58
2017-04-27T09:12:35.852Z,1009.61
2017-04-27T09:13:35.791Z,1009.58
2017-04-27T09:14:35.731Z,1009.58
2017-04-27T09:15:35.662Z,1009.6
2017-04-27T09:16:35.598Z,1009.57
2017-04-27T09:17:35.539Z,1009.59
2017-04-27T09:18:35.473Z,1009.58
2017-04-27T09:19:35.410Z,1009.54
2017-04-27T09:20:35.348Z,1009.55
2017-04-27T09:21:35.284Z,1009.53
2017-04-27T09:22:35.224Z,1009.54
2017-04-27T09:23:35.157Z,1009.56
2017-04-27T09:24:35.095Z,1009.56
2017-04-27T09:25:35.032Z,1009.57
2017-04-27T09:26:34.968Z,1009.56
2017-04-27T09:27:34.904Z,1009.53
2017-04-27T09:28:34.843Z,1009.55
2017-04-27T09:29:34.780Z,1009.52
2017-04-27T09:30:34.717Z,1009.52
2017-04-27T09:31:34.654Z,1009.45
2017-04-27T09:32:34.591Z,1009.49
2017-04-27T09:33:34.526Z,1009.45
2017-04-27T09:34:34.463Z,1009.49
2017-04-27T09:35:34.552Z,1009.46
2017-04-27T09:36:34.365Z,1009.47
2017-04-27T09:37:34.283Z,1009.51
2017-04-27T09:38:34.212Z,1009.52
2017-04-27T09:39:34.148Z,1009.52
2017-04-27T09:40:34.460Z,1009.48
2017-04-27T09:41:34.023Z,1009.37
2017-04-27T09:42:33.960Z,1009.35
2017-04-27T09:43:33.897Z,1009.38
2017-04-27T09:44:33.833Z,1009.39
2017-04-27T09:45:33.771Z,1009.36
2017-04-27T09:46:33.708Z,1009.41
2017-04-27T09:47:33.645Z,1009.41
2017-04-27T09:48:33.582Z,1009.39
2017-04-27T09:49:33.518Z,1009.41
2017-04-27T09:50:33.459Z,1009.4
2017-04-27T09:51:33.391Z,1009.4
2017-04-27T09:52:33.328Z,1009.39
2017-04-27T09:53:33.301Z,1009.3
2017-04-27T09:54:33.204Z,1009.37
2017-04-27T09:55:33.150Z,1009.3
2017-04-27T09:56:33.081Z,1009.28
2017-04-27T09:57:33.019Z,1009.32
2017-04-27T09:58:32.952Z,1009.3
2017-04-27T09:59:32.885Z,1009.32
2017-04-27T10:00:32.837Z,1009.35
2017-04-27T10:01:32.761Z,1009.31
2017-04-27T10:02:32.698Z,1009.31
2017-04-27T10:03:32.636Z,1009.31
2017-04-27T10:04:32.573Z,1009.31
2017-04-27T10:05:32.509Z,1009.3
2017-04-27T10:06:32.445Z,1009.29
2017-04-27T10:07:32.382Z,1009.31
2017-04-27T10:08:32.320Z,1009.3
2017-04-27T10:09:32.258Z,1009.28
2017-04-27T10:10:32.192Z,1009.29
2017-04-27T10:11:32.131Z,1009.28
2017-04-27T10:12:32.066Z,1009.27
2017-04-27T10:13:32.010Z,1009.29
2017-04-27T10:14:31.940Z,1009.29
2017-04-27T10:15:31.877Z,1009.28
2017-04-27T10:16:31.817Z,1009.31
2017-04-27T10:17:31.753Z,1009.31
2017-04-27T10:18:31.689Z,1009.33
2017-04-27T10:19:31.626Z,1009.33
2017-04-27T10:20:31.564Z,1009.34
2017-04-27T10:21:31.514Z,1009.36
2017-04-27T10:22:31.438Z,1009.34
2017-04-27T10:23:31.376Z,1009.33
2017-04-27T10:24:31.311Z,1009.36
2017-04-27T10:25:31.249Z,1009.38
2017-04-27T10:26:31.207Z,1009.37
2017-04-27T10:27:31.124Z,1009.37
2017-04-27T10:28:31.060Z,1009.4
2017-04-27T10:29:30.996Z,1009.35
2017-04-27T10:30:31.033Z,1009.36
2017-04-27T10:31:30.871Z,1009.38
2017-04-27T10:32:30.807Z,1009.38
2017-04-27T10:33:30.745Z,1009.41
2017-04-27T10:34:30.683Z,1009.38
2017-04-27T10:35:30.620Z,1009.37
2017-04-27T10:36:30.557Z,1009.37
2017-04-27T10:37:30.493Z,1009.35
2017-04-27T10:38:30.435Z,1009.36
2017-04-27T10:39:30.367Z,1009.37
2017-04-27T10:40:30.305Z,1009.36
2017-04-27T10:41:30.242Z,1009.35
2017-04-27T10:42:30.179Z,1009.37
2017-04-27T10:43:30.116Z,1009.34
2017-04-27T10:44:30.051Z,1009.32
2017-04-27T10:45:29.990Z,1009.3
2017-04-27T10:46:29.927Z,1009.32
2017-04-27T10:47:29.864Z,1009.31
2017-04-27T10:48:29.801Z,1009.29
2017-04-27T10:49:29.739Z,1009.29
2017-04-27T10:50:29.674Z,1009.25
2017-04-27T10:51:29.610Z,1009.22
2017-04-27T10:52:29.549Z,1009.2
2017-04-27T10:53:29.487Z,1009.24
2017-04-27T10:54:29.422Z,1009.23
2017-04-27T10:55:29.361Z,1009.25
2017-04-27T10:56:29.305Z,1009.22
2017-04-27T10:57:29.235Z,1009.22
2017-04-27T10:58:29.171Z,1009.15
2017-04-27T10:59:29.109Z,1009.24
2017-04-27T11:00:29.046Z,1009.23
2017-04-27T11:01:28.983Z,1009.16
2017-04-27T11:02:28.921Z,1009.16
2017-04-27T11:03:28.857Z,1009.18
2017-04-27T11:04:28.795Z,1009.22
2017-04-27T11:05:28.883Z,1009.21
2017-04-27T11:06:28.669Z,1009.23
2017-04-27T11:07:28.607Z,1009.27
2017-04-27T11:08:28.542Z,1009.23
2017-04-27T11:09:28.480Z,1009.29
2017-04-27T11:10:28.666Z,1009.25
2017-04-27T11:11:28.356Z,1009.3
2017-04-27T11:12:28.295Z,1009.27
2017-04-27T11:13:28.230Z,1009.3
2017-04-27T11:14:28.166Z,1009.25
2017-04-27T11:15:28.106Z,1009.2
2017-04-27T11:16:28.040Z,1009.21
2017-04-27T11:17:27.976Z,1009.19
2017-04-27T11:18:27.916Z,1009.16
2017-04-27T11:19:27.850Z,1009.21
2017-04-27T11:20:27.790Z,1009.2
2017-04-27T11:21:27.727Z,1009.24
2017-04-27T11:22:27.664Z,1009.24
2017-04-27T11:23:27.601Z,1009.26
2017-04-27T11:24:27.537Z,1009.24
2017-04-27T11:25:27.676Z,1009.2
2017-04-27T11:26:27.415Z,1009.15
2017-04-27T11:27:27.355Z,1009.18
2017-04-27T11:28:27.293Z,1009.13
2017-04-27T11:29:27.225Z,1009.14
2017-04-27T11:30:27.168Z,1009.14
2017-04-27T11:31:27.098Z,1009.16
2017-04-27T11:32:27.034Z,1009.19
2017-04-27T11:33:26.972Z,1009.2
2017-04-27T11:34:26.909Z,1009.1
2017-04-27T11:35:26.846Z,1009.12
2017-04-27T11:36:26.783Z,1009.1
2017-04-27T11:37:26.721Z,1009.16
2017-04-27T11:38:26.657Z,1009.11
2017-04-27T11:39:26.595Z,1009.13
2017-04-27T11:40:26.736Z,1009.14
2017-04-27T11:41:26.670Z,1009.13
2017-04-27T11:42:26.406Z,1009.14
2017-04-27T11:43:26.343Z,1009.18
2017-04-27T11:44:26.282Z,1009.15
2017-04-27T11:45:26.215Z,1009.08
2017-04-27T11:46:26.156Z,1009.07
2017-04-27T11:47:26.103Z,1009.1
2017-04-27T11:48:26.029Z,1009.11
2017-04-27T11:49:25.967Z,1009.05
2017-04-27T11:50:25.902Z,1009.04
2017-04-27T11:51:25.840Z,1009.03
2017-04-27T11:52:25.777Z,1009
2017-04-27T11:53:25.713Z,1008.99
2017-04-27T11:54:25.653Z,1009
2017-04-27T11:55:25.590Z,1009.08
2017-04-27T11:56:25.524Z,1009.12
2017-04-27T11:57:25.463Z,1009.14
2017-04-27T11:58:25.401Z,1009.1
2017-04-27T11:59:25.337Z,1009.15
2017-04-27T12:00:25.282Z,1009.17
2017-04-27T12:01:25.211Z,1009.15
2017-04-27T12:02:25.150Z,1009.17
2017-04-27T12:03:25.087Z,1009.19
2017-04-27T12:04:25.023Z,1009.14
2017-04-27T12:05:24.961Z,1009.18
2017-04-27T12:06:24.899Z,1009.2
2017-04-27T12:07:24.834Z,1009.16
2017-04-27T12:08:24.773Z,1009.16
2017-04-27T12:09:24.731Z,1009.14